<?xml version="1.0" encoding="UTF-8" standalone="no" ?>
<gpx xmlns="http://www.topografix.com/GPX/1/1" xmlns:xsi="http://www.w3.org/2001/XMLSchema-instance" xsi:schemaLocation="http://www.topografix.com/GPX/1/1 http://www.topografix.com/GPX/1/1/gpx.xsd" version="1.1" creator="VisuGPX - https://www.visugpx.com">
  <metadata>
    <name>2017-10-20 - VTT Pravouta</name>
    <desc><![CDATA[Belle balade avec Yannick. Montée efficace et descente sympa.]]></desc>
  </metadata>
  <trk>
    <name><![CDATA[2017-10-20 - VTT Pravouta]]></name>
    <trkseg>
      <trkpt lat="45.26481" lon="5.84018">
        <ele>405.33</ele>
        <time>2017-10-20T07:28:37Z</time>
      </trkpt>
      <trkpt lat="45.26501" lon="5.84037">
        <ele>471.18</ele>
        <time>2017-10-20T07:29:33Z</time>
      </trkpt>
      <trkpt lat="45.26512" lon="5.84024">
        <ele>470.22</ele>
        <time>2017-10-20T07:32:20Z</time>
      </trkpt>
      <trkpt lat="45.26544" lon="5.84056">
        <ele>471.18</ele>
        <time>2017-10-20T07:32:40Z</time>
      </trkpt>
      <trkpt lat="45.26806" lon="5.84116">
        <ele>495.22</ele>
        <time>2017-10-20T07:34:54Z</time>
      </trkpt>
      <trkpt lat="45.27121" lon="5.84131">
        <ele>518.29</ele>
        <time>2017-10-20T07:37:22Z</time>
      </trkpt>
      <trkpt lat="45.27248" lon="5.84396">
        <ele>537.51</ele>
        <time>2017-10-20T07:39:03Z</time>
      </trkpt>
      <trkpt lat="45.27334" lon="5.84496">
        <ele>547.13</ele>
        <time>2017-10-20T07:39:55Z</time>
      </trkpt>
      <trkpt lat="45.27395" lon="5.84536">
        <ele>553.86</ele>
        <time>2017-10-20T07:40:27Z</time>
      </trkpt>
      <trkpt lat="45.27417" lon="5.84571">
        <ele>556.74</ele>
        <time>2017-10-20T07:40:43Z</time>
      </trkpt>
      <trkpt lat="45.2747" lon="5.84621">
        <ele>562.51</ele>
        <time>2017-10-20T07:41:15Z</time>
      </trkpt>
      <trkpt lat="45.27614" lon="5.84695">
        <ele>578.85</ele>
        <time>2017-10-20T07:42:36Z</time>
      </trkpt>
      <trkpt lat="45.27645" lon="5.84719">
        <ele>581.73</ele>
        <time>2017-10-20T07:42:52Z</time>
      </trkpt>
      <trkpt lat="45.27645" lon="5.84691">
        <ele>583.18</ele>
        <time>2017-10-20T07:43:03Z</time>
      </trkpt>
      <trkpt lat="45.27607" lon="5.84663">
        <ele>586.06</ele>
        <time>2017-10-20T07:43:20Z</time>
      </trkpt>
      <trkpt lat="45.27568" lon="5.84604">
        <ele>592.79</ele>
        <time>2017-10-20T07:43:50Z</time>
      </trkpt>
      <trkpt lat="45.27541" lon="5.8458">
        <ele>596.15</ele>
        <time>2017-10-20T07:44:07Z</time>
      </trkpt>
      <trkpt lat="45.27516" lon="5.84538">
        <ele>600.96</ele>
        <time>2017-10-20T07:44:29Z</time>
      </trkpt>
      <trkpt lat="45.27511" lon="5.84528">
        <ele>601.44</ele>
        <time>2017-10-20T07:44:33Z</time>
      </trkpt>
      <trkpt lat="45.27373" lon="5.84397">
        <ele>616.82</ele>
        <time>2017-10-20T07:45:56Z</time>
      </trkpt>
      <trkpt lat="45.27293" lon="5.84185">
        <ele>632.68</ele>
        <time>2017-10-20T07:47:21Z</time>
      </trkpt>
      <trkpt lat="45.2731" lon="5.8409">
        <ele>639.41</ele>
        <time>2017-10-20T07:47:56Z</time>
      </trkpt>
      <trkpt lat="45.27327" lon="5.84052">
        <ele>642.3</ele>
        <time>2017-10-20T07:48:13Z</time>
      </trkpt>
      <trkpt lat="45.27327" lon="5.83922">
        <ele>650.47</ele>
        <time>2017-10-20T07:49:00Z</time>
      </trkpt>
      <trkpt lat="45.27421" lon="5.83692">
        <ele>667.29</ele>
        <time>2017-10-20T07:50:33Z</time>
      </trkpt>
      <trkpt lat="45.27434" lon="5.83646">
        <ele>670.18</ele>
        <time>2017-10-20T07:50:51Z</time>
      </trkpt>
      <trkpt lat="45.27422" lon="5.83607">
        <ele>673.54</ele>
        <time>2017-10-20T07:51:07Z</time>
      </trkpt>
      <trkpt lat="45.27418" lon="5.83566">
        <ele>675.94</ele>
        <time>2017-10-20T07:51:22Z</time>
      </trkpt>
      <trkpt lat="45.27435" lon="5.83574">
        <ele>678.35</ele>
        <time>2017-10-20T07:51:31Z</time>
      </trkpt>
      <trkpt lat="45.27447" lon="5.83619">
        <ele>681.71</ele>
        <time>2017-10-20T07:51:47Z</time>
      </trkpt>
      <trkpt lat="45.27447" lon="5.83681">
        <ele>685.08</ele>
        <time>2017-10-20T07:52:08Z</time>
      </trkpt>
      <trkpt lat="45.27429" lon="5.83726">
        <ele>687.48</ele>
        <time>2017-10-20T07:52:25Z</time>
      </trkpt>
      <trkpt lat="45.27394" lon="5.83885">
        <ele>694.69</ele>
        <time>2017-10-20T07:53:18Z</time>
      </trkpt>
      <trkpt lat="45.27398" lon="5.83923">
        <ele>697.57</ele>
        <time>2017-10-20T07:53:31Z</time>
      </trkpt>
      <trkpt lat="45.27483" lon="5.83978">
        <ele>707.19</ele>
        <time>2017-10-20T07:54:20Z</time>
      </trkpt>
      <trkpt lat="45.27497" lon="5.84057">
        <ele>713.44</ele>
        <time>2017-10-20T07:54:49Z</time>
      </trkpt>
      <trkpt lat="45.2751" lon="5.841">
        <ele>716.8</ele>
        <time>2017-10-20T07:55:05Z</time>
      </trkpt>
      <trkpt lat="45.27546" lon="5.84153">
        <ele>721.61</ele>
        <time>2017-10-20T07:55:33Z</time>
      </trkpt>
      <trkpt lat="45.27553" lon="5.8417">
        <ele>722.57</ele>
        <time>2017-10-20T07:56:01Z</time>
      </trkpt>
      <trkpt lat="45.27589" lon="5.84219">
        <ele>726.89</ele>
        <time>2017-10-20T07:57:04Z</time>
      </trkpt>
      <trkpt lat="45.27602" lon="5.84198">
        <ele>728.82</ele>
        <time>2017-10-20T07:57:19Z</time>
      </trkpt>
      <trkpt lat="45.27587" lon="5.8415">
        <ele>732.18</ele>
        <time>2017-10-20T07:57:37Z</time>
      </trkpt>
      <trkpt lat="45.27518" lon="5.83785">
        <ele>760.54</ele>
        <time>2017-10-20T08:00:11Z</time>
      </trkpt>
      <trkpt lat="45.27558" lon="5.83862">
        <ele>767.27</ele>
        <time>2017-10-20T08:00:54Z</time>
      </trkpt>
      <trkpt lat="45.27651" lon="5.83956">
        <ele>780.25</ele>
        <time>2017-10-20T08:02:02Z</time>
      </trkpt>
      <trkpt lat="45.27695" lon="5.84057">
        <ele>788.9</ele>
        <time>2017-10-20T08:02:53Z</time>
      </trkpt>
      <trkpt lat="45.27736" lon="5.84139">
        <ele>795.15</ele>
        <time>2017-10-20T08:03:32Z</time>
      </trkpt>
      <trkpt lat="45.27797" lon="5.84185">
        <ele>801.4</ele>
        <time>2017-10-20T08:04:10Z</time>
      </trkpt>
      <trkpt lat="45.27867" lon="5.84382">
        <ele>816.78</ele>
        <time>2017-10-20T08:05:35Z</time>
      </trkpt>
      <trkpt lat="45.27898" lon="5.84432">
        <ele>821.58</ele>
        <time>2017-10-20T08:06:04Z</time>
      </trkpt>
      <trkpt lat="45.27896" lon="5.84481">
        <ele>825.43</ele>
        <time>2017-10-20T08:06:24Z</time>
      </trkpt>
      <trkpt lat="45.27895" lon="5.84581">
        <ele>833.12</ele>
        <time>2017-10-20T08:07:02Z</time>
      </trkpt>
      <trkpt lat="45.27909" lon="5.84618">
        <ele>836</ele>
        <time>2017-10-20T08:07:18Z</time>
      </trkpt>
      <trkpt lat="45.2796" lon="5.84692">
        <ele>842.73</ele>
        <time>2017-10-20T08:07:58Z</time>
      </trkpt>
      <trkpt lat="45.28018" lon="5.84722">
        <ele>848.98</ele>
        <time>2017-10-20T08:08:36Z</time>
      </trkpt>
      <trkpt lat="45.28032" lon="5.84705">
        <ele>854.27</ele>
        <time>2017-10-20T08:09:09Z</time>
      </trkpt>
      <trkpt lat="45.28258" lon="5.84838">
        <ele>873.5</ele>
        <time>2017-10-20T08:10:46Z</time>
      </trkpt>
      <trkpt lat="45.28254" lon="5.8485">
        <ele>873.5</ele>
        <time>2017-10-20T08:11:07Z</time>
      </trkpt>
      <trkpt lat="45.28282" lon="5.84813">
        <ele>879.26</ele>
        <time>2017-10-20T08:15:23Z</time>
      </trkpt>
      <trkpt lat="45.28465" lon="5.8485">
        <ele>893.68</ele>
        <time>2017-10-20T08:16:37Z</time>
      </trkpt>
      <trkpt lat="45.28473" lon="5.84824">
        <ele>896.57</ele>
        <time>2017-10-20T08:16:52Z</time>
      </trkpt>
      <trkpt lat="45.28538" lon="5.849">
        <ele>905.22</ele>
        <time>2017-10-20T08:17:43Z</time>
      </trkpt>
      <trkpt lat="45.28597" lon="5.84905">
        <ele>910.51</ele>
        <time>2017-10-20T08:18:15Z</time>
      </trkpt>
      <trkpt lat="45.28623" lon="5.84931">
        <ele>914.35</ele>
        <time>2017-10-20T08:18:31Z</time>
      </trkpt>
      <trkpt lat="45.28694" lon="5.85025">
        <ele>923.48</ele>
        <time>2017-10-20T08:19:26Z</time>
      </trkpt>
      <trkpt lat="45.288" lon="5.85096">
        <ele>933.1</ele>
        <time>2017-10-20T08:20:31Z</time>
      </trkpt>
      <trkpt lat="45.28834" lon="5.85087">
        <ele>935.98</ele>
        <time>2017-10-20T08:20:50Z</time>
      </trkpt>
      <trkpt lat="45.28849" lon="5.85053">
        <ele>937.9</ele>
        <time>2017-10-20T08:21:05Z</time>
      </trkpt>
      <trkpt lat="45.28856" lon="5.85">
        <ele>939.35</ele>
        <time>2017-10-20T08:21:23Z</time>
      </trkpt>
      <trkpt lat="45.28861" lon="5.84973">
        <ele>941.27</ele>
        <time>2017-10-20T08:21:32Z</time>
      </trkpt>
      <trkpt lat="45.28859" lon="5.84966">
        <ele>941.27</ele>
        <time>2017-10-20T08:21:35Z</time>
      </trkpt>
      <trkpt lat="45.28822" lon="5.8503">
        <ele>946.07</ele>
        <time>2017-10-20T08:22:09Z</time>
      </trkpt>
      <trkpt lat="45.2879" lon="5.85032">
        <ele>948.48</ele>
        <time>2017-10-20T08:22:27Z</time>
      </trkpt>
      <trkpt lat="45.28746" lon="5.84992">
        <ele>954.25</ele>
        <time>2017-10-20T08:22:58Z</time>
      </trkpt>
      <trkpt lat="45.28813" lon="5.84838">
        <ele>969.15</ele>
        <time>2017-10-20T08:24:18Z</time>
      </trkpt>
      <trkpt lat="45.28842" lon="5.84808">
        <ele>971.55</ele>
        <time>2017-10-20T08:24:37Z</time>
      </trkpt>
      <trkpt lat="45.28933" lon="5.84784">
        <ele>980.68</ele>
        <time>2017-10-20T08:25:25Z</time>
      </trkpt>
      <trkpt lat="45.2898" lon="5.84727">
        <ele>986.45</ele>
        <time>2017-10-20T08:25:59Z</time>
      </trkpt>
      <trkpt lat="45.29019" lon="5.84729">
        <ele>989.33</ele>
        <time>2017-10-20T08:26:19Z</time>
      </trkpt>
      <trkpt lat="45.29047" lon="5.84756">
        <ele>991.26</ele>
        <time>2017-10-20T08:26:36Z</time>
      </trkpt>
      <trkpt lat="45.29084" lon="5.84783">
        <ele>994.14</ele>
        <time>2017-10-20T08:26:55Z</time>
      </trkpt>
      <trkpt lat="45.29112" lon="5.84773">
        <ele>997.02</ele>
        <time>2017-10-20T08:27:10Z</time>
      </trkpt>
      <trkpt lat="45.29078" lon="5.847">
        <ele>1001.83</ele>
        <time>2017-10-20T08:27:43Z</time>
      </trkpt>
      <trkpt lat="45.28999" lon="5.84622">
        <ele>1009.52</ele>
        <time>2017-10-20T08:28:30Z</time>
      </trkpt>
      <trkpt lat="45.28967" lon="5.84582">
        <ele>1012.89</ele>
        <time>2017-10-20T08:28:50Z</time>
      </trkpt>
      <trkpt lat="45.29113" lon="5.8462">
        <ele>1026.83</ele>
        <time>2017-10-20T08:30:14Z</time>
      </trkpt>
      <trkpt lat="45.29182" lon="5.8458">
        <ele>1033.07</ele>
        <time>2017-10-20T08:30:58Z</time>
      </trkpt>
      <trkpt lat="45.2918" lon="5.8455">
        <ele>1034.52</ele>
        <time>2017-10-20T08:31:11Z</time>
      </trkpt>
      <trkpt lat="45.29103" lon="5.84517">
        <ele>1040.76</ele>
        <time>2017-10-20T08:31:51Z</time>
      </trkpt>
      <trkpt lat="45.29078" lon="5.84474">
        <ele>1043.65</ele>
        <time>2017-10-20T08:32:10Z</time>
      </trkpt>
      <trkpt lat="45.29014" lon="5.84422">
        <ele>1048.94</ele>
        <time>2017-10-20T08:32:46Z</time>
      </trkpt>
      <trkpt lat="45.28956" lon="5.84364">
        <ele>1055.18</ele>
        <time>2017-10-20T08:33:20Z</time>
      </trkpt>
      <trkpt lat="45.28852" lon="5.84347">
        <ele>1065.28</ele>
        <time>2017-10-20T08:34:13Z</time>
      </trkpt>
      <trkpt lat="45.28809" lon="5.84322">
        <ele>1069.12</ele>
        <time>2017-10-20T08:34:40Z</time>
      </trkpt>
      <trkpt lat="45.28884" lon="5.8426">
        <ele>1077.29</ele>
        <time>2017-10-20T08:35:30Z</time>
      </trkpt>
      <trkpt lat="45.28965" lon="5.84222">
        <ele>1084.99</ele>
        <time>2017-10-20T08:36:19Z</time>
      </trkpt>
      <trkpt lat="45.28895" lon="5.84193">
        <ele>1092.68</ele>
        <time>2017-10-20T08:37:03Z</time>
      </trkpt>
      <trkpt lat="45.2911" lon="5.84119">
        <ele>1116.71</ele>
        <time>2017-10-20T08:39:20Z</time>
      </trkpt>
      <trkpt lat="45.29248" lon="5.84136">
        <ele>1131.61</ele>
        <time>2017-10-20T08:40:44Z</time>
      </trkpt>
      <trkpt lat="45.29412" lon="5.84104">
        <ele>1149.39</ele>
        <time>2017-10-20T08:42:29Z</time>
      </trkpt>
      <trkpt lat="45.29451" lon="5.84104">
        <ele>1153.24</ele>
        <time>2017-10-20T08:42:50Z</time>
      </trkpt>
      <trkpt lat="45.29478" lon="5.84129">
        <ele>1156.6</ele>
        <time>2017-10-20T08:43:05Z</time>
      </trkpt>
      <trkpt lat="45.29565" lon="5.84132">
        <ele>1168.14</ele>
        <time>2017-10-20T08:44:03Z</time>
      </trkpt>
      <trkpt lat="45.29586" lon="5.84134">
        <ele>1170.54</ele>
        <time>2017-10-20T08:44:16Z</time>
      </trkpt>
      <trkpt lat="45.2962" lon="5.84172">
        <ele>1174.39</ele>
        <time>2017-10-20T08:44:42Z</time>
      </trkpt>
      <trkpt lat="45.29657" lon="5.84241">
        <ele>1180.64</ele>
        <time>2017-10-20T08:45:26Z</time>
      </trkpt>
      <trkpt lat="45.29741" lon="5.84262">
        <ele>1191.21</ele>
        <time>2017-10-20T08:46:25Z</time>
      </trkpt>
      <trkpt lat="45.29777" lon="5.84281">
        <ele>1194.09</ele>
        <time>2017-10-20T08:46:54Z</time>
      </trkpt>
      <trkpt lat="45.29665" lon="5.84472">
        <ele>1208.51</ele>
        <time>2017-10-20T08:48:36Z</time>
      </trkpt>
      <trkpt lat="45.29632" lon="5.84531">
        <ele>1211.88</ele>
        <time>2017-10-20T08:49:03Z</time>
      </trkpt>
      <trkpt lat="45.29635" lon="5.84535">
        <ele>1212.36</ele>
        <time>2017-10-20T08:49:05Z</time>
      </trkpt>
      <trkpt lat="45.30011" lon="5.84193">
        <ele>1260.43</ele>
        <time>2017-10-20T08:53:58Z</time>
      </trkpt>
      <trkpt lat="45.30033" lon="5.84168">
        <ele>1263.79</ele>
        <time>2017-10-20T08:54:16Z</time>
      </trkpt>
      <trkpt lat="45.3003" lon="5.8414">
        <ele>1265.23</ele>
        <time>2017-10-20T08:54:28Z</time>
      </trkpt>
      <trkpt lat="45.30025" lon="5.84135">
        <ele>1266.19</ele>
        <time>2017-10-20T08:54:32Z</time>
      </trkpt>
      <trkpt lat="45.30022" lon="5.84133">
        <ele>1266.19</ele>
        <time>2017-10-20T08:54:34Z</time>
      </trkpt>
      <trkpt lat="45.29946" lon="5.84056">
        <ele>1273.4</ele>
        <time>2017-10-20T08:55:32Z</time>
      </trkpt>
      <trkpt lat="45.29948" lon="5.8405">
        <ele>1274.36</ele>
        <time>2017-10-20T08:55:35Z</time>
      </trkpt>
      <trkpt lat="45.2995" lon="5.84049">
        <ele>1274.36</ele>
        <time>2017-10-20T08:55:36Z</time>
      </trkpt>
      <trkpt lat="45.30042" lon="5.84073">
        <ele>1286.38</ele>
        <time>2017-10-20T08:56:38Z</time>
      </trkpt>
      <trkpt lat="45.30192" lon="5.84045">
        <ele>1303.2</ele>
        <time>2017-10-20T08:58:18Z</time>
      </trkpt>
      <trkpt lat="45.30224" lon="5.84106">
        <ele>1308.97</ele>
        <time>2017-10-20T08:58:54Z</time>
      </trkpt>
      <trkpt lat="45.30233" lon="5.84071">
        <ele>1310.9</ele>
        <time>2017-10-20T08:59:21Z</time>
      </trkpt>
      <trkpt lat="45.30215" lon="5.84004">
        <ele>1316.18</ele>
        <time>2017-10-20T08:59:55Z</time>
      </trkpt>
      <trkpt lat="45.30193" lon="5.83972">
        <ele>1318.1</ele>
        <time>2017-10-20T09:00:13Z</time>
      </trkpt>
      <trkpt lat="45.30143" lon="5.83961">
        <ele>1324.83</ele>
        <time>2017-10-20T09:00:46Z</time>
      </trkpt>
      <trkpt lat="45.30138" lon="5.83942">
        <ele>1326.28</ele>
        <time>2017-10-20T09:00:59Z</time>
      </trkpt>
      <trkpt lat="45.30206" lon="5.83931">
        <ele>1333.97</ele>
        <time>2017-10-20T09:01:45Z</time>
      </trkpt>
      <trkpt lat="45.30254" lon="5.83955">
        <ele>1338.77</ele>
        <time>2017-10-20T09:02:18Z</time>
      </trkpt>
      <trkpt lat="45.30324" lon="5.84029">
        <ele>1347.91</ele>
        <time>2017-10-20T09:03:13Z</time>
      </trkpt>
      <trkpt lat="45.30348" lon="5.84049">
        <ele>1350.31</ele>
        <time>2017-10-20T09:03:31Z</time>
      </trkpt>
      <trkpt lat="45.30354" lon="5.84022">
        <ele>1352.23</ele>
        <time>2017-10-20T09:03:46Z</time>
      </trkpt>
      <trkpt lat="45.30333" lon="5.83976">
        <ele>1355.6</ele>
        <time>2017-10-20T09:04:10Z</time>
      </trkpt>
      <trkpt lat="45.30328" lon="5.83911">
        <ele>1361.84</ele>
        <time>2017-10-20T09:04:45Z</time>
      </trkpt>
      <trkpt lat="45.30386" lon="5.83983">
        <ele>1370.5</ele>
        <time>2017-10-20T09:05:37Z</time>
      </trkpt>
      <trkpt lat="45.30484" lon="5.84035">
        <ele>1381.55</ele>
        <time>2017-10-20T09:06:50Z</time>
      </trkpt>
      <trkpt lat="45.30526" lon="5.84077">
        <ele>1387.32</ele>
        <time>2017-10-20T09:07:25Z</time>
      </trkpt>
      <trkpt lat="45.30529" lon="5.84003">
        <ele>1391.65</ele>
        <time>2017-10-20T09:08:00Z</time>
      </trkpt>
      <trkpt lat="45.30515" lon="5.83953">
        <ele>1395.01</ele>
        <time>2017-10-20T09:08:26Z</time>
      </trkpt>
      <trkpt lat="45.30443" lon="5.83882">
        <ele>1404.62</ele>
        <time>2017-10-20T09:09:24Z</time>
      </trkpt>
      <trkpt lat="45.30435" lon="5.83889">
        <ele>1404.62</ele>
        <time>2017-10-20T09:09:43Z</time>
      </trkpt>
      <trkpt lat="45.3044" lon="5.8389">
        <ele>1405.58</ele>
        <time>2017-10-20T09:10:35Z</time>
      </trkpt>
      <trkpt lat="45.30389" lon="5.83792">
        <ele>1412.79</ele>
        <time>2017-10-20T09:12:41Z</time>
      </trkpt>
      <trkpt lat="45.30348" lon="5.83771">
        <ele>1419.04</ele>
        <time>2017-10-20T09:13:10Z</time>
      </trkpt>
      <trkpt lat="45.303" lon="5.83734">
        <ele>1424.33</ele>
        <time>2017-10-20T09:13:47Z</time>
      </trkpt>
      <trkpt lat="45.30246" lon="5.83684">
        <ele>1428.66</ele>
        <time>2017-10-20T09:15:08Z</time>
      </trkpt>
      <trkpt lat="45.30251" lon="5.8367">
        <ele>1428.66</ele>
        <time>2017-10-20T09:15:16Z</time>
      </trkpt>
      <trkpt lat="45.3028" lon="5.83609">
        <ele>1424.81</ele>
        <time>2017-10-20T09:15:59Z</time>
      </trkpt>
      <trkpt lat="45.30283" lon="5.83603">
        <ele>1424.33</ele>
        <time>2017-10-20T09:16:01Z</time>
      </trkpt>
      <trkpt lat="45.30324" lon="5.83546">
        <ele>1421.93</ele>
        <time>2017-10-20T09:16:29Z</time>
      </trkpt>
      <trkpt lat="45.30421" lon="5.83397">
        <ele>1432.5</ele>
        <time>2017-10-20T09:18:04Z</time>
      </trkpt>
      <trkpt lat="45.30446" lon="5.83389">
        <ele>1435.87</ele>
        <time>2017-10-20T09:18:23Z</time>
      </trkpt>
      <trkpt lat="45.3047" lon="5.83365">
        <ele>1436.35</ele>
        <time>2017-10-20T09:18:45Z</time>
      </trkpt>
      <trkpt lat="45.30535" lon="5.83346">
        <ele>1447.4</ele>
        <time>2017-10-20T09:19:33Z</time>
      </trkpt>
      <trkpt lat="45.30593" lon="5.833">
        <ele>1460.38</ele>
        <time>2017-10-20T09:20:32Z</time>
      </trkpt>
      <trkpt lat="45.30615" lon="5.83287">
        <ele>1463.26</ele>
        <time>2017-10-20T09:20:54Z</time>
      </trkpt>
      <trkpt lat="45.30655" lon="5.83214">
        <ele>1475.28</ele>
        <time>2017-10-20T09:21:58Z</time>
      </trkpt>
      <trkpt lat="45.30667" lon="5.83185">
        <ele>1477.2</ele>
        <time>2017-10-20T09:22:17Z</time>
      </trkpt>
      <trkpt lat="45.3069" lon="5.83166">
        <ele>1481.53</ele>
        <time>2017-10-20T09:22:36Z</time>
      </trkpt>
      <trkpt lat="45.30753" lon="5.83157">
        <ele>1485.37</ele>
        <time>2017-10-20T09:23:08Z</time>
      </trkpt>
      <trkpt lat="45.30832" lon="5.8295">
        <ele>1509.41</ele>
        <time>2017-10-20T09:25:27Z</time>
      </trkpt>
      <trkpt lat="45.30904" lon="5.82923">
        <ele>1520.94</ele>
        <time>2017-10-20T09:26:40Z</time>
      </trkpt>
      <trkpt lat="45.30945" lon="5.8293">
        <ele>1530.56</ele>
        <time>2017-10-20T09:27:12Z</time>
      </trkpt>
      <trkpt lat="45.30991" lon="5.82932">
        <ele>1538.25</ele>
        <time>2017-10-20T09:28:00Z</time>
      </trkpt>
      <trkpt lat="45.31019" lon="5.82911">
        <ele>1545.46</ele>
        <time>2017-10-20T09:28:31Z</time>
      </trkpt>
      <trkpt lat="45.31076" lon="5.82897">
        <ele>1555.55</ele>
        <time>2017-10-20T09:33:38Z</time>
      </trkpt>
      <trkpt lat="45.31181" lon="5.8293">
        <ele>1579.1</ele>
        <time>2017-10-20T09:35:27Z</time>
      </trkpt>
      <trkpt lat="45.31184" lon="5.82943">
        <ele>1579.58</ele>
        <time>2017-10-20T09:35:43Z</time>
      </trkpt>
      <trkpt lat="45.31149" lon="5.82992">
        <ele>1587.27</ele>
        <time>2017-10-20T09:36:38Z</time>
      </trkpt>
      <trkpt lat="45.31125" lon="5.83023">
        <ele>1593.52</ele>
        <time>2017-10-20T09:37:14Z</time>
      </trkpt>
      <trkpt lat="45.31117" lon="5.83077">
        <ele>1600.73</ele>
        <time>2017-10-20T09:37:59Z</time>
      </trkpt>
      <trkpt lat="45.31127" lon="5.8308">
        <ele>1603.14</ele>
        <time>2017-10-20T09:38:11Z</time>
      </trkpt>
      <trkpt lat="45.31148" lon="5.8308">
        <ele>1607.46</ele>
        <time>2017-10-20T09:38:35Z</time>
      </trkpt>
      <trkpt lat="45.31183" lon="5.83097">
        <ele>1615.63</ele>
        <time>2017-10-20T09:39:17Z</time>
      </trkpt>
      <trkpt lat="45.31303" lon="5.83234">
        <ele>1635.34</ele>
        <time>2017-10-20T09:41:41Z</time>
      </trkpt>
      <trkpt lat="45.3129" lon="5.83318">
        <ele>1645.91</ele>
        <time>2017-10-20T09:42:38Z</time>
      </trkpt>
      <trkpt lat="45.31281" lon="5.83397">
        <ele>1650.72</ele>
        <time>2017-10-20T09:43:31Z</time>
      </trkpt>
      <trkpt lat="45.31298" lon="5.83432">
        <ele>1655.53</ele>
        <time>2017-10-20T09:43:55Z</time>
      </trkpt>
      <trkpt lat="45.31316" lon="5.83448">
        <ele>1666.58</ele>
        <time>2017-10-20T09:44:49Z</time>
      </trkpt>
      <trkpt lat="45.31337" lon="5.83468">
        <ele>1672.35</ele>
        <time>2017-10-20T09:45:33Z</time>
      </trkpt>
      <trkpt lat="45.31369" lon="5.83502">
        <ele>1690.14</ele>
        <time>2017-10-20T09:46:50Z</time>
      </trkpt>
      <trkpt lat="45.31385" lon="5.83513">
        <ele>1693.98</ele>
        <time>2017-10-20T09:47:20Z</time>
      </trkpt>
      <trkpt lat="45.31385" lon="5.83511">
        <ele>1692.54</ele>
        <time>2017-10-20T09:47:47Z</time>
      </trkpt>
      <trkpt lat="45.31393" lon="5.83538">
        <ele>1689.17</ele>
        <time>2017-10-20T09:48:03Z</time>
      </trkpt>
      <trkpt lat="45.31428" lon="5.83634">
        <ele>1692.06</ele>
        <time>2017-10-20T09:48:44Z</time>
      </trkpt>
      <trkpt lat="45.3138" lon="5.83639">
        <ele>1709.36</ele>
        <time>2017-10-20T09:51:37Z</time>
      </trkpt>
      <trkpt lat="45.31339" lon="5.83609">
        <ele>1721.86</ele>
        <time>2017-10-20T09:52:50Z</time>
      </trkpt>
      <trkpt lat="45.31322" lon="5.83598">
        <ele>1727.63</ele>
        <time>2017-10-20T09:53:18Z</time>
      </trkpt>
      <trkpt lat="45.31138" lon="5.83525">
        <ele>1753.1</ele>
        <time>2017-10-20T09:57:35Z</time>
      </trkpt>
      <trkpt lat="45.31136" lon="5.83543">
        <ele>1764.16</ele>
        <time>2017-10-20T10:32:38Z</time>
      </trkpt>
      <trkpt lat="45.31135" lon="5.83543">
        <ele>1764.16</ele>
        <time>2017-10-20T10:32:39Z</time>
      </trkpt>
      <trkpt lat="45.31134" lon="5.83526">
        <ele>1755.99</ele>
        <time>2017-10-20T10:33:30Z</time>
      </trkpt>
      <trkpt lat="45.31167" lon="5.83529">
        <ele>1748.29</ele>
        <time>2017-10-20T10:33:46Z</time>
      </trkpt>
      <trkpt lat="45.31217" lon="5.83559">
        <ele>1740.6</ele>
        <time>2017-10-20T10:34:18Z</time>
      </trkpt>
      <trkpt lat="45.31225" lon="5.83564">
        <ele>1738.68</ele>
        <time>2017-10-20T10:34:22Z</time>
      </trkpt>
      <trkpt lat="45.3126" lon="5.83573">
        <ele>1732.91</ele>
        <time>2017-10-20T10:34:38Z</time>
      </trkpt>
      <trkpt lat="45.31331" lon="5.83605">
        <ele>1723.3</ele>
        <time>2017-10-20T10:35:16Z</time>
      </trkpt>
      <trkpt lat="45.31351" lon="5.83625">
        <ele>1718.49</ele>
        <time>2017-10-20T10:35:48Z</time>
      </trkpt>
      <trkpt lat="45.31382" lon="5.8364">
        <ele>1708.4</ele>
        <time>2017-10-20T10:35:59Z</time>
      </trkpt>
      <trkpt lat="45.31427" lon="5.83646">
        <ele>1693.98</ele>
        <time>2017-10-20T10:36:19Z</time>
      </trkpt>
      <trkpt lat="45.31426" lon="5.83654">
        <ele>1693.98</ele>
        <time>2017-10-20T10:36:22Z</time>
      </trkpt>
      <trkpt lat="45.31424" lon="5.83657">
        <ele>1696.86</ele>
        <time>2017-10-20T10:36:31Z</time>
      </trkpt>
      <trkpt lat="45.31407" lon="5.83688">
        <ele>1684.37</ele>
        <time>2017-10-20T10:36:53Z</time>
      </trkpt>
      <trkpt lat="45.3142" lon="5.83705">
        <ele>1677.16</ele>
        <time>2017-10-20T10:37:48Z</time>
      </trkpt>
      <trkpt lat="45.31393" lon="5.83724">
        <ele>1669.47</ele>
        <time>2017-10-20T10:38:34Z</time>
      </trkpt>
      <trkpt lat="45.31392" lon="5.83736">
        <ele>1664.66</ele>
        <time>2017-10-20T10:40:30Z</time>
      </trkpt>
      <trkpt lat="45.31353" lon="5.83764">
        <ele>1652.64</ele>
        <time>2017-10-20T10:41:38Z</time>
      </trkpt>
      <trkpt lat="45.31323" lon="5.83768">
        <ele>1646.88</ele>
        <time>2017-10-20T10:42:14Z</time>
      </trkpt>
      <trkpt lat="45.31272" lon="5.83797">
        <ele>1627.17</ele>
        <time>2017-10-20T10:42:53Z</time>
      </trkpt>
      <trkpt lat="45.31253" lon="5.83809">
        <ele>1622.36</ele>
        <time>2017-10-20T10:43:01Z</time>
      </trkpt>
      <trkpt lat="45.31191" lon="5.83852">
        <ele>1613.23</ele>
        <time>2017-10-20T10:43:22Z</time>
      </trkpt>
      <trkpt lat="45.31158" lon="5.83871">
        <ele>1610.35</ele>
        <time>2017-10-20T10:43:33Z</time>
      </trkpt>
      <trkpt lat="45.31113" lon="5.83915">
        <ele>1602.66</ele>
        <time>2017-10-20T10:43:48Z</time>
      </trkpt>
      <trkpt lat="45.31096" lon="5.83944">
        <ele>1592.56</ele>
        <time>2017-10-20T10:43:58Z</time>
      </trkpt>
      <trkpt lat="45.3108" lon="5.8397">
        <ele>1589.2</ele>
        <time>2017-10-20T10:44:03Z</time>
      </trkpt>
      <trkpt lat="45.31073" lon="5.83987">
        <ele>1585.83</ele>
        <time>2017-10-20T10:44:07Z</time>
      </trkpt>
      <trkpt lat="45.31054" lon="5.84003">
        <ele>1580.54</ele>
        <time>2017-10-20T10:44:13Z</time>
      </trkpt>
      <trkpt lat="45.31057" lon="5.84017">
        <ele>1577.18</ele>
        <time>2017-10-20T10:44:18Z</time>
      </trkpt>
      <trkpt lat="45.31073" lon="5.8405">
        <ele>1572.85</ele>
        <time>2017-10-20T10:44:56Z</time>
      </trkpt>
      <trkpt lat="45.31065" lon="5.84098">
        <ele>1561.8</ele>
        <time>2017-10-20T10:45:09Z</time>
      </trkpt>
      <trkpt lat="45.31063" lon="5.84118">
        <ele>1558.43</ele>
        <time>2017-10-20T10:45:11Z</time>
      </trkpt>
      <trkpt lat="45.31057" lon="5.84142">
        <ele>1553.15</ele>
        <time>2017-10-20T10:45:13Z</time>
      </trkpt>
      <trkpt lat="45.31016" lon="5.84226">
        <ele>1548.82</ele>
        <time>2017-10-20T10:45:25Z</time>
      </trkpt>
      <trkpt lat="45.30882" lon="5.84204">
        <ele>1512.77</ele>
        <time>2017-10-20T10:46:26Z</time>
      </trkpt>
      <trkpt lat="45.30812" lon="5.84209">
        <ele>1491.62</ele>
        <time>2017-10-20T10:46:49Z</time>
      </trkpt>
      <trkpt lat="45.30704" lon="5.84229">
        <ele>1471.92</ele>
        <time>2017-10-20T10:47:16Z</time>
      </trkpt>
      <trkpt lat="45.307" lon="5.84229">
        <ele>1470.95</ele>
        <time>2017-10-20T10:47:18Z</time>
      </trkpt>
      <trkpt lat="45.30714" lon="5.84187">
        <ele>1468.55</ele>
        <time>2017-10-20T10:47:26Z</time>
      </trkpt>
      <trkpt lat="45.30733" lon="5.84134">
        <ele>1461.82</ele>
        <time>2017-10-20T10:47:33Z</time>
      </trkpt>
      <trkpt lat="45.30727" lon="5.8412">
        <ele>1459.42</ele>
        <time>2017-10-20T10:47:36Z</time>
      </trkpt>
      <trkpt lat="45.30595" lon="5.84183">
        <ele>1436.35</ele>
        <time>2017-10-20T10:48:05Z</time>
      </trkpt>
      <trkpt lat="45.30625" lon="5.84092">
        <ele>1427.21</ele>
        <time>2017-10-20T10:48:21Z</time>
      </trkpt>
      <trkpt lat="45.30584" lon="5.8404">
        <ele>1419.04</ele>
        <time>2017-10-20T10:48:38Z</time>
      </trkpt>
      <trkpt lat="45.30573" lon="5.84037">
        <ele>1417.12</ele>
        <time>2017-10-20T10:48:40Z</time>
      </trkpt>
      <trkpt lat="45.3055" lon="5.84024">
        <ele>1412.79</ele>
        <time>2017-10-20T10:48:44Z</time>
      </trkpt>
      <trkpt lat="45.30501" lon="5.83935">
        <ele>1413.28</ele>
        <time>2017-10-20T10:50:48Z</time>
      </trkpt>
      <trkpt lat="45.3043" lon="5.83861">
        <ele>1421.93</ele>
        <time>2017-10-20T10:51:44Z</time>
      </trkpt>
      <trkpt lat="45.30399" lon="5.838">
        <ele>1428.18</ele>
        <time>2017-10-20T10:52:16Z</time>
      </trkpt>
      <trkpt lat="45.30256" lon="5.83701">
        <ele>1442.6</ele>
        <time>2017-10-20T10:53:56Z</time>
      </trkpt>
      <trkpt lat="45.30231" lon="5.83699">
        <ele>1443.56</ele>
        <time>2017-10-20T10:54:12Z</time>
      </trkpt>
      <trkpt lat="45.30132" lon="5.837">
        <ele>1451.73</ele>
        <time>2017-10-20T10:55:12Z</time>
      </trkpt>
      <trkpt lat="45.30126" lon="5.83698">
        <ele>1452.69</ele>
        <time>2017-10-20T10:55:17Z</time>
      </trkpt>
      <trkpt lat="45.30122" lon="5.83697">
        <ele>1453.17</ele>
        <time>2017-10-20T10:55:21Z</time>
      </trkpt>
      <trkpt lat="45.30116" lon="5.83697">
        <ele>1453.65</ele>
        <time>2017-10-20T10:55:26Z</time>
      </trkpt>
      <trkpt lat="45.3005" lon="5.8373">
        <ele>1454.13</ele>
        <time>2017-10-20T10:56:00Z</time>
      </trkpt>
      <trkpt lat="45.29998" lon="5.83741">
        <ele>1453.17</ele>
        <time>2017-10-20T10:56:14Z</time>
      </trkpt>
      <trkpt lat="45.29805" lon="5.83659">
        <ele>1470.95</ele>
        <time>2017-10-20T10:57:51Z</time>
      </trkpt>
      <trkpt lat="45.2975" lon="5.83617">
        <ele>1478.16</ele>
        <time>2017-10-20T10:58:42Z</time>
      </trkpt>
      <trkpt lat="45.29732" lon="5.83581">
        <ele>1482.97</ele>
        <time>2017-10-20T10:59:06Z</time>
      </trkpt>
      <trkpt lat="45.29704" lon="5.83513">
        <ele>1491.14</ele>
        <time>2017-10-20T10:59:47Z</time>
      </trkpt>
      <trkpt lat="45.29676" lon="5.83461">
        <ele>1495.95</ele>
        <time>2017-10-20T11:00:24Z</time>
      </trkpt>
      <trkpt lat="45.29651" lon="5.83446">
        <ele>1497.39</ele>
        <time>2017-10-20T11:03:07Z</time>
      </trkpt>
      <trkpt lat="45.29592" lon="5.83448">
        <ele>1487.78</ele>
        <time>2017-10-20T11:04:33Z</time>
      </trkpt>
      <trkpt lat="45.29562" lon="5.8342">
        <ele>1483.45</ele>
        <time>2017-10-20T11:04:39Z</time>
      </trkpt>
      <trkpt lat="45.29538" lon="5.83396">
        <ele>1476.24</ele>
        <time>2017-10-20T11:04:44Z</time>
      </trkpt>
      <trkpt lat="45.29481" lon="5.83449">
        <ele>1471.44</ele>
        <time>2017-10-20T11:04:56Z</time>
      </trkpt>
      <trkpt lat="45.29475" lon="5.83466">
        <ele>1468.55</ele>
        <time>2017-10-20T11:05:02Z</time>
      </trkpt>
      <trkpt lat="45.29484" lon="5.83466">
        <ele>1465.19</ele>
        <time>2017-10-20T11:05:15Z</time>
      </trkpt>
      <trkpt lat="45.29463" lon="5.8349">
        <ele>1457.98</ele>
        <time>2017-10-20T11:05:52Z</time>
      </trkpt>
      <trkpt lat="45.29472" lon="5.83494">
        <ele>1454.61</ele>
        <time>2017-10-20T11:06:11Z</time>
      </trkpt>
      <trkpt lat="45.29464" lon="5.83503">
        <ele>1450.29</ele>
        <time>2017-10-20T11:06:18Z</time>
      </trkpt>
      <trkpt lat="45.2945" lon="5.83524">
        <ele>1444.52</ele>
        <time>2017-10-20T11:06:36Z</time>
      </trkpt>
      <trkpt lat="45.29519" lon="5.83499">
        <ele>1431.54</ele>
        <time>2017-10-20T11:07:20Z</time>
      </trkpt>
      <trkpt lat="45.2951" lon="5.83512">
        <ele>1429.14</ele>
        <time>2017-10-20T11:07:42Z</time>
      </trkpt>
      <trkpt lat="45.295" lon="5.83536">
        <ele>1425.29</ele>
        <time>2017-10-20T11:07:50Z</time>
      </trkpt>
      <trkpt lat="45.29494" lon="5.83543">
        <ele>1423.37</ele>
        <time>2017-10-20T11:07:52Z</time>
      </trkpt>
      <trkpt lat="45.29465" lon="5.8358">
        <ele>1417.12</ele>
        <time>2017-10-20T11:08:01Z</time>
      </trkpt>
      <trkpt lat="45.29395" lon="5.83649">
        <ele>1402.7</ele>
        <time>2017-10-20T11:08:24Z</time>
      </trkpt>
      <trkpt lat="45.29349" lon="5.83653">
        <ele>1395.01</ele>
        <time>2017-10-20T11:08:51Z</time>
      </trkpt>
      <trkpt lat="45.29312" lon="5.83622">
        <ele>1382.51</ele>
        <time>2017-10-20T11:09:13Z</time>
      </trkpt>
      <trkpt lat="45.29287" lon="5.83622">
        <ele>1372.42</ele>
        <time>2017-10-20T11:09:35Z</time>
      </trkpt>
      <trkpt lat="45.2929" lon="5.83637">
        <ele>1370.02</ele>
        <time>2017-10-20T11:09:44Z</time>
      </trkpt>
      <trkpt lat="45.29281" lon="5.83632">
        <ele>1367.61</ele>
        <time>2017-10-20T11:09:49Z</time>
      </trkpt>
      <trkpt lat="45.29265" lon="5.83625">
        <ele>1358.96</ele>
        <time>2017-10-20T11:09:56Z</time>
      </trkpt>
      <trkpt lat="45.29252" lon="5.83621">
        <ele>1354.63</ele>
        <time>2017-10-20T11:09:59Z</time>
      </trkpt>
      <trkpt lat="45.29136" lon="5.83629">
        <ele>1326.76</ele>
        <time>2017-10-20T11:10:26Z</time>
      </trkpt>
      <trkpt lat="45.29126" lon="5.83628">
        <ele>1322.43</ele>
        <time>2017-10-20T11:10:29Z</time>
      </trkpt>
      <trkpt lat="45.29114" lon="5.83627">
        <ele>1319.07</ele>
        <time>2017-10-20T11:10:31Z</time>
      </trkpt>
      <trkpt lat="45.29098" lon="5.8362">
        <ele>1317.14</ele>
        <time>2017-10-20T11:10:34Z</time>
      </trkpt>
      <trkpt lat="45.29072" lon="5.83619">
        <ele>1309.93</ele>
        <time>2017-10-20T11:10:42Z</time>
      </trkpt>
      <trkpt lat="45.29028" lon="5.83626">
        <ele>1294.07</ele>
        <time>2017-10-20T11:10:56Z</time>
      </trkpt>
      <trkpt lat="45.29002" lon="5.83622">
        <ele>1280.61</ele>
        <time>2017-10-20T11:11:12Z</time>
      </trkpt>
      <trkpt lat="45.28981" lon="5.83608">
        <ele>1270.04</ele>
        <time>2017-10-20T11:11:38Z</time>
      </trkpt>
      <trkpt lat="45.28935" lon="5.83653">
        <ele>1250.81</ele>
        <time>2017-10-20T11:12:40Z</time>
      </trkpt>
      <trkpt lat="45.28929" lon="5.83665">
        <ele>1246.97</ele>
        <time>2017-10-20T11:12:44Z</time>
      </trkpt>
      <trkpt lat="45.28901" lon="5.8371">
        <ele>1233.03</ele>
        <time>2017-10-20T11:12:58Z</time>
      </trkpt>
      <trkpt lat="45.28856" lon="5.83734">
        <ele>1218.13</ele>
        <time>2017-10-20T11:13:11Z</time>
      </trkpt>
      <trkpt lat="45.28846" lon="5.83759">
        <ele>1210.92</ele>
        <time>2017-10-20T11:13:20Z</time>
      </trkpt>
      <trkpt lat="45.28782" lon="5.8376">
        <ele>1209.96</ele>
        <time>2017-10-20T11:13:39Z</time>
      </trkpt>
      <trkpt lat="45.28753" lon="5.8374">
        <ele>1209.48</ele>
        <time>2017-10-20T11:14:23Z</time>
      </trkpt>
      <trkpt lat="45.288" lon="5.83649">
        <ele>1200.82</ele>
        <time>2017-10-20T11:14:48Z</time>
      </trkpt>
      <trkpt lat="45.28838" lon="5.83557">
        <ele>1188.81</ele>
        <time>2017-10-20T11:15:04Z</time>
      </trkpt>
      <trkpt lat="45.28916" lon="5.83451">
        <ele>1172.95</ele>
        <time>2017-10-20T11:15:53Z</time>
      </trkpt>
      <trkpt lat="45.28816" lon="5.83511">
        <ele>1155.16</ele>
        <time>2017-10-20T11:16:43Z</time>
      </trkpt>
      <trkpt lat="45.28885" lon="5.83401">
        <ele>1137.38</ele>
        <time>2017-10-20T11:17:40Z</time>
      </trkpt>
      <trkpt lat="45.28845" lon="5.83418">
        <ele>1129.69</ele>
        <time>2017-10-20T11:17:54Z</time>
      </trkpt>
      <trkpt lat="45.28837" lon="5.83422">
        <ele>1127.76</ele>
        <time>2017-10-20T11:17:56Z</time>
      </trkpt>
      <trkpt lat="45.2881" lon="5.83438">
        <ele>1121.03</ele>
        <time>2017-10-20T11:18:08Z</time>
      </trkpt>
      <trkpt lat="45.28813" lon="5.83429">
        <ele>1119.59</ele>
        <time>2017-10-20T11:18:13Z</time>
      </trkpt>
      <trkpt lat="45.2885" lon="5.83359">
        <ele>1108.06</ele>
        <time>2017-10-20T11:19:32Z</time>
      </trkpt>
      <trkpt lat="45.28824" lon="5.83393">
        <ele>1103.25</ele>
        <time>2017-10-20T11:19:51Z</time>
      </trkpt>
      <trkpt lat="45.28792" lon="5.83405">
        <ele>1098.44</ele>
        <time>2017-10-20T11:20:07Z</time>
      </trkpt>
      <trkpt lat="45.28807" lon="5.83391">
        <ele>1094.6</ele>
        <time>2017-10-20T11:20:24Z</time>
      </trkpt>
      <trkpt lat="45.28819" lon="5.83347">
        <ele>1087.39</ele>
        <time>2017-10-20T11:20:58Z</time>
      </trkpt>
      <trkpt lat="45.28794" lon="5.8338">
        <ele>1083.06</ele>
        <time>2017-10-20T11:21:16Z</time>
      </trkpt>
      <trkpt lat="45.28775" lon="5.83382">
        <ele>1078.74</ele>
        <time>2017-10-20T11:21:24Z</time>
      </trkpt>
      <trkpt lat="45.28769" lon="5.83401">
        <ele>1078.26</ele>
        <time>2017-10-20T11:21:31Z</time>
      </trkpt>
      <trkpt lat="45.28766" lon="5.83403">
        <ele>1078.26</ele>
        <time>2017-10-20T11:21:33Z</time>
      </trkpt>
      <trkpt lat="45.28758" lon="5.83401">
        <ele>1074.89</ele>
        <time>2017-10-20T11:21:37Z</time>
      </trkpt>
      <trkpt lat="45.28751" lon="5.83416">
        <ele>1072.97</ele>
        <time>2017-10-20T11:21:40Z</time>
      </trkpt>
      <trkpt lat="45.28723" lon="5.8343">
        <ele>1068.16</ele>
        <time>2017-10-20T11:21:52Z</time>
      </trkpt>
      <trkpt lat="45.28716" lon="5.8343">
        <ele>1065.28</ele>
        <time>2017-10-20T11:22:05Z</time>
      </trkpt>
      <trkpt lat="45.28733" lon="5.8342">
        <ele>1062.39</ele>
        <time>2017-10-20T11:22:13Z</time>
      </trkpt>
      <trkpt lat="45.28752" lon="5.83364">
        <ele>1054.7</ele>
        <time>2017-10-20T11:22:28Z</time>
      </trkpt>
      <trkpt lat="45.28775" lon="5.83352">
        <ele>1052.3</ele>
        <time>2017-10-20T11:22:35Z</time>
      </trkpt>
      <trkpt lat="45.2878" lon="5.8334">
        <ele>1049.9</ele>
        <time>2017-10-20T11:22:37Z</time>
      </trkpt>
      <trkpt lat="45.28817" lon="5.83276">
        <ele>1041.73</ele>
        <time>2017-10-20T11:23:28Z</time>
      </trkpt>
      <trkpt lat="45.28782" lon="5.83299">
        <ele>1035.96</ele>
        <time>2017-10-20T11:23:40Z</time>
      </trkpt>
      <trkpt lat="45.28701" lon="5.83359">
        <ele>1021.54</ele>
        <time>2017-10-20T11:24:06Z</time>
      </trkpt>
      <trkpt lat="45.28669" lon="5.83372">
        <ele>1012.89</ele>
        <time>2017-10-20T11:24:16Z</time>
      </trkpt>
      <trkpt lat="45.28769" lon="5.83213">
        <ele>987.41</ele>
        <time>2017-10-20T11:25:00Z</time>
      </trkpt>
      <trkpt lat="45.28775" lon="5.8319">
        <ele>985.49</ele>
        <time>2017-10-20T11:25:07Z</time>
      </trkpt>
      <trkpt lat="45.2874" lon="5.83225">
        <ele>978.28</ele>
        <time>2017-10-20T11:25:21Z</time>
      </trkpt>
      <trkpt lat="45.28687" lon="5.83242">
        <ele>969.15</ele>
        <time>2017-10-20T11:25:36Z</time>
      </trkpt>
      <trkpt lat="45.28683" lon="5.83242">
        <ele>968.18</ele>
        <time>2017-10-20T11:25:37Z</time>
      </trkpt>
      <trkpt lat="45.28612" lon="5.83297">
        <ele>956.65</ele>
        <time>2017-10-20T11:26:07Z</time>
      </trkpt>
      <trkpt lat="45.28623" lon="5.83288">
        <ele>954.25</ele>
        <time>2017-10-20T11:27:44Z</time>
      </trkpt>
      <trkpt lat="45.28632" lon="5.83275">
        <ele>952.8</ele>
        <time>2017-10-20T11:27:48Z</time>
      </trkpt>
      <trkpt lat="45.28639" lon="5.83261">
        <ele>949.92</ele>
        <time>2017-10-20T11:27:52Z</time>
      </trkpt>
      <trkpt lat="45.28649" lon="5.8325">
        <ele>948.48</ele>
        <time>2017-10-20T11:27:56Z</time>
      </trkpt>
      <trkpt lat="45.28662" lon="5.83231">
        <ele>945.11</ele>
        <time>2017-10-20T11:28:02Z</time>
      </trkpt>
      <trkpt lat="45.28669" lon="5.8322">
        <ele>943.67</ele>
        <time>2017-10-20T11:28:04Z</time>
      </trkpt>
      <trkpt lat="45.28716" lon="5.83158">
        <ele>934.06</ele>
        <time>2017-10-20T11:28:20Z</time>
      </trkpt>
      <trkpt lat="45.2873" lon="5.83129">
        <ele>930.69</ele>
        <time>2017-10-20T11:28:34Z</time>
      </trkpt>
      <trkpt lat="45.28718" lon="5.8315">
        <ele>927.81</ele>
        <time>2017-10-20T11:28:47Z</time>
      </trkpt>
      <trkpt lat="45.28703" lon="5.83149">
        <ele>924.45</ele>
        <time>2017-10-20T11:28:52Z</time>
      </trkpt>
      <trkpt lat="45.28694" lon="5.83152">
        <ele>922.52</ele>
        <time>2017-10-20T11:28:54Z</time>
      </trkpt>
      <trkpt lat="45.28661" lon="5.83168">
        <ele>917.72</ele>
        <time>2017-10-20T11:29:02Z</time>
      </trkpt>
      <trkpt lat="45.28621" lon="5.83195">
        <ele>910.03</ele>
        <time>2017-10-20T11:29:26Z</time>
      </trkpt>
      <trkpt lat="45.28644" lon="5.83159">
        <ele>903.78</ele>
        <time>2017-10-20T11:29:37Z</time>
      </trkpt>
      <trkpt lat="45.2869" lon="5.83113">
        <ele>894.64</ele>
        <time>2017-10-20T11:29:58Z</time>
      </trkpt>
      <trkpt lat="45.28684" lon="5.83115">
        <ele>893.2</ele>
        <time>2017-10-20T11:30:00Z</time>
      </trkpt>
      <trkpt lat="45.28669" lon="5.8311">
        <ele>889.84</ele>
        <time>2017-10-20T11:30:05Z</time>
      </trkpt>
      <trkpt lat="45.28664" lon="5.83085">
        <ele>886.47</ele>
        <time>2017-10-20T11:30:51Z</time>
      </trkpt>
      <trkpt lat="45.28682" lon="5.83082">
        <ele>890.8</ele>
        <time>2017-10-20T11:31:38Z</time>
      </trkpt>
      <trkpt lat="45.28697" lon="5.83073">
        <ele>892.72</ele>
        <time>2017-10-20T11:33:17Z</time>
      </trkpt>
      <trkpt lat="45.28706" lon="5.83071">
        <ele>892.72</ele>
        <time>2017-10-20T11:33:29Z</time>
      </trkpt>
      <trkpt lat="45.28711" lon="5.83064">
        <ele>892.72</ele>
        <time>2017-10-20T11:33:40Z</time>
      </trkpt>
      <trkpt lat="45.2871" lon="5.83059">
        <ele>891.76</ele>
        <time>2017-10-20T11:33:46Z</time>
      </trkpt>
      <trkpt lat="45.28701" lon="5.83054">
        <ele>892.72</ele>
        <time>2017-10-20T11:35:26Z</time>
      </trkpt>
      <trkpt lat="45.28691" lon="5.83052">
        <ele>890.8</ele>
        <time>2017-10-20T11:35:29Z</time>
      </trkpt>
      <trkpt lat="45.2867" lon="5.83024">
        <ele>891.28</ele>
        <time>2017-10-20T11:35:42Z</time>
      </trkpt>
      <trkpt lat="45.28587" lon="5.83005">
        <ele>874.46</ele>
        <time>2017-10-20T11:36:30Z</time>
      </trkpt>
      <trkpt lat="45.2854" lon="5.83008">
        <ele>857.15</ele>
        <time>2017-10-20T11:37:36Z</time>
      </trkpt>
      <trkpt lat="45.2853" lon="5.82998">
        <ele>857.15</ele>
        <time>2017-10-20T11:37:50Z</time>
      </trkpt>
      <trkpt lat="45.28523" lon="5.82993">
        <ele>856.67</ele>
        <time>2017-10-20T11:37:58Z</time>
      </trkpt>
      <trkpt lat="45.28513" lon="5.82986">
        <ele>855.71</ele>
        <time>2017-10-20T11:38:19Z</time>
      </trkpt>
      <trkpt lat="45.28494" lon="5.82985">
        <ele>850.9</ele>
        <time>2017-10-20T11:38:32Z</time>
      </trkpt>
      <trkpt lat="45.28421" lon="5.82977">
        <ele>827.35</ele>
        <time>2017-10-20T11:39:02Z</time>
      </trkpt>
      <trkpt lat="45.28397" lon="5.82966">
        <ele>823.99</ele>
        <time>2017-10-20T11:39:24Z</time>
      </trkpt>
      <trkpt lat="45.28365" lon="5.82961">
        <ele>815.82</ele>
        <time>2017-10-20T11:39:45Z</time>
      </trkpt>
      <trkpt lat="45.28301" lon="5.82948">
        <ele>805.24</ele>
        <time>2017-10-20T11:39:58Z</time>
      </trkpt>
      <trkpt lat="45.28111" lon="5.8293">
        <ele>764.87</ele>
        <time>2017-10-20T11:41:25Z</time>
      </trkpt>
      <trkpt lat="45.2805" lon="5.82965">
        <ele>756.21</ele>
        <time>2017-10-20T11:42:01Z</time>
      </trkpt>
      <trkpt lat="45.2804" lon="5.8297">
        <ele>752.85</ele>
        <time>2017-10-20T11:42:07Z</time>
      </trkpt>
      <trkpt lat="45.27984" lon="5.82925">
        <ele>740.35</ele>
        <time>2017-10-20T11:42:22Z</time>
      </trkpt>
      <trkpt lat="45.27919" lon="5.82879">
        <ele>730.26</ele>
        <time>2017-10-20T11:42:40Z</time>
      </trkpt>
      <trkpt lat="45.27875" lon="5.82897">
        <ele>723.53</ele>
        <time>2017-10-20T11:42:48Z</time>
      </trkpt>
      <trkpt lat="45.27848" lon="5.82874">
        <ele>720.16</ele>
        <time>2017-10-20T11:42:53Z</time>
      </trkpt>
      <trkpt lat="45.27823" lon="5.82871">
        <ele>713.92</ele>
        <time>2017-10-20T11:42:58Z</time>
      </trkpt>
      <trkpt lat="45.27808" lon="5.82872">
        <ele>709.59</ele>
        <time>2017-10-20T11:43:00Z</time>
      </trkpt>
      <trkpt lat="45.27741" lon="5.82888">
        <ele>699.5</ele>
        <time>2017-10-20T11:43:10Z</time>
      </trkpt>
      <trkpt lat="45.27719" lon="5.82909">
        <ele>698.05</ele>
        <time>2017-10-20T11:43:15Z</time>
      </trkpt>
      <trkpt lat="45.27708" lon="5.82916">
        <ele>695.65</ele>
        <time>2017-10-20T11:43:17Z</time>
      </trkpt>
      <trkpt lat="45.27701" lon="5.82921">
        <ele>693.73</ele>
        <time>2017-10-20T11:43:19Z</time>
      </trkpt>
      <trkpt lat="45.27628" lon="5.82958">
        <ele>678.83</ele>
        <time>2017-10-20T11:43:38Z</time>
      </trkpt>
      <trkpt lat="45.27521" lon="5.82953">
        <ele>662.01</ele>
        <time>2017-10-20T11:43:58Z</time>
      </trkpt>
      <trkpt lat="45.27454" lon="5.82925">
        <ele>653.83</ele>
        <time>2017-10-20T11:44:09Z</time>
      </trkpt>
      <trkpt lat="45.27376" lon="5.82962">
        <ele>644.22</ele>
        <time>2017-10-20T11:44:23Z</time>
      </trkpt>
      <trkpt lat="45.27358" lon="5.82981">
        <ele>639.89</ele>
        <time>2017-10-20T11:44:27Z</time>
      </trkpt>
      <trkpt lat="45.27308" lon="5.83024">
        <ele>632.2</ele>
        <time>2017-10-20T11:45:43Z</time>
      </trkpt>
      <trkpt lat="45.27308" lon="5.83018">
        <ele>631.24</ele>
        <time>2017-10-20T11:46:36Z</time>
      </trkpt>
      <trkpt lat="45.273" lon="5.83044">
        <ele>626.44</ele>
        <time>2017-10-20T11:47:40Z</time>
      </trkpt>
      <trkpt lat="45.27276" lon="5.83063">
        <ele>622.59</ele>
        <time>2017-10-20T11:47:50Z</time>
      </trkpt>
      <trkpt lat="45.27261" lon="5.83129">
        <ele>616.34</ele>
        <time>2017-10-20T11:48:07Z</time>
      </trkpt>
      <trkpt lat="45.2724" lon="5.83141">
        <ele>616.82</ele>
        <time>2017-10-20T11:49:23Z</time>
      </trkpt>
      <trkpt lat="45.27235" lon="5.83144">
        <ele>615.38</ele>
        <time>2017-10-20T11:49:25Z</time>
      </trkpt>
      <trkpt lat="45.27229" lon="5.83148">
        <ele>614.42</ele>
        <time>2017-10-20T11:49:27Z</time>
      </trkpt>
      <trkpt lat="45.27198" lon="5.83165">
        <ele>609.61</ele>
        <time>2017-10-20T11:49:36Z</time>
      </trkpt>
      <trkpt lat="45.27162" lon="5.83202">
        <ele>602.88</ele>
        <time>2017-10-20T11:49:49Z</time>
      </trkpt>
      <trkpt lat="45.27101" lon="5.83262">
        <ele>592.79</ele>
        <time>2017-10-20T11:50:08Z</time>
      </trkpt>
      <trkpt lat="45.27077" lon="5.83281">
        <ele>588.95</ele>
        <time>2017-10-20T11:50:14Z</time>
      </trkpt>
      <trkpt lat="45.26612" lon="5.83483">
        <ele>515.88</ele>
        <time>2017-10-20T11:52:01Z</time>
      </trkpt>
      <trkpt lat="45.26601" lon="5.83484">
        <ele>513</ele>
        <time>2017-10-20T11:52:15Z</time>
      </trkpt>
      <trkpt lat="45.26583" lon="5.83529">
        <ele>510.12</ele>
        <time>2017-10-20T11:53:55Z</time>
      </trkpt>
      <trkpt lat="45.26597" lon="5.83547">
        <ele>513.96</ele>
        <time>2017-10-20T11:54:32Z</time>
      </trkpt>
      <trkpt lat="45.26596" lon="5.83548">
        <ele>513.96</ele>
        <time>2017-10-20T11:54:38Z</time>
      </trkpt>
      <trkpt lat="45.26644" lon="5.83584">
        <ele>514.44</ele>
        <time>2017-10-20T11:55:51Z</time>
      </trkpt>
      <trkpt lat="45.26593" lon="5.83551">
        <ele>512.52</ele>
        <time>2017-10-20T11:56:29Z</time>
      </trkpt>
      <trkpt lat="45.26594" lon="5.83535">
        <ele>511.08</ele>
        <time>2017-10-20T11:56:35Z</time>
      </trkpt>
      <trkpt lat="45.26584" lon="5.83536">
        <ele>509.64</ele>
        <time>2017-10-20T11:56:38Z</time>
      </trkpt>
      <trkpt lat="45.26574" lon="5.83539">
        <ele>508.19</ele>
        <time>2017-10-20T11:56:40Z</time>
      </trkpt>
      <trkpt lat="45.26541" lon="5.83537">
        <ele>503.39</ele>
        <time>2017-10-20T11:56:46Z</time>
      </trkpt>
      <trkpt lat="45.26351" lon="5.83626">
        <ele>476.95</ele>
        <time>2017-10-20T11:57:55Z</time>
      </trkpt>
      <trkpt lat="45.2632" lon="5.83655">
        <ele>472.14</ele>
        <time>2017-10-20T11:58:02Z</time>
      </trkpt>
      <trkpt lat="45.26312" lon="5.83685">
        <ele>470.7</ele>
        <time>2017-10-20T11:58:06Z</time>
      </trkpt>
      <trkpt lat="45.26324" lon="5.83731">
        <ele>470.22</ele>
        <time>2017-10-20T11:58:13Z</time>
      </trkpt>
      <trkpt lat="45.26488" lon="5.84008">
        <ele>476.47</ele>
        <time>2017-10-20T11:59:24Z</time>
      </trkpt>
      <trkpt lat="45.26507" lon="5.84029">
        <ele>475.99</ele>
        <time>2017-10-20T12:00:02Z</time>
      </trkpt>
    </trkseg>
  </trk>
</gpx>